createdAt,value
2022-08-29T00:01:21.522Z,99.90
2022-08-29T00:03:50.389Z,99.90
2022-08-29T00:06:17.687Z,99.90
2022-08-29T00:08:44.767Z,99.90
2022-08-29T00:11:11.806Z,99.90
2022-08-29T00:13:39.161Z,99.90
2022-08-29T00:16:06.526Z,99.90
2022-08-29T00:18:33.929Z,99.90
2022-08-29T00:21:01.268Z,99.90
2022-08-29T00:23:28.801Z,99.90
2022-08-29T00:25:56.451Z,99.90
2022-08-29T00:28:24.504Z,99.90
2022-08-29T00:30:51.634Z,99.90
2022-08-29T00:33:18.652Z,99.90
2022-08-29T00:35:47.665Z,99.90
2022-08-29T00:38:19.167Z,99.90
2022-08-29T00:40:51.689Z,99.90
2022-08-29T00:43:26.281Z,99.90
2022-08-29T00:46:28.880Z,99.90
2022-08-29T00:49:03.639Z,99.90
2022-08-29T00:51:31.595Z,99.90
2022-08-29T00:54:03.126Z,99.90
2022-08-29T00:56:31.391Z,99.90
2022-08-29T00:59:06.778Z,99.90
2022-08-29T01:01:34.194Z,99.90
2022-08-29T01:04:01.291Z,99.90
2022-08-29T01:06:29.350Z,99.90
2022-08-29T01:08:58.334Z,99.90
2022-08-29T01:11:46.706Z,99.90
2022-08-29T01:14:16.020Z,99.90
2022-08-29T01:16:43.495Z,99.90
2022-08-29T01:19:24.449Z,99.90
2022-08-29T01:22:10.393Z,99.90
2022-08-29T01:24:46.027Z,99.90
2022-08-29T01:27:14.392Z,99.90
2022-08-29T01:29:41.459Z,99.90
2022-08-29T01:32:08.537Z,99.90
2022-08-29T01:34:35.596Z,99.90
2022-08-29T01:37:06.315Z,99.90
2022-08-29T01:39:36.435Z,99.90
2022-08-29T01:42:07.635Z,99.90
2022-08-29T01:44:34.634Z,99.90
2022-08-29T01:47:03.328Z,99.90
2022-08-29T01:49:33.821Z,99.90
2022-08-29T01:52:02.052Z,99.90
2022-08-29T01:54:30.170Z,99.90
2022-08-29T01:56:57.392Z,99.90
2022-08-29T01:59:28.060Z,99.90
2022-08-29T02:02:23.123Z,99.90
2022-08-29T02:04:50.511Z,99.90
2022-08-29T02:07:19.642Z,99.90
2022-08-29T02:09:47.956Z,99.90
2022-08-29T02:12:16.473Z,99.90
2022-08-29T02:14:44.492Z,99.90
2022-08-29T02:17:11.789Z,99.90
2022-08-29T02:19:39.681Z,99.90
2022-08-29T02:22:08.194Z,99.90
2022-08-29T02:24:35.701Z,99.90
2022-08-29T02:27:02.862Z,99.90
2022-08-29T02:29:31.033Z,99.90
2022-08-29T02:32:07.991Z,99.90
2022-08-29T02:34:35.696Z,99.90
2022-08-29T02:37:04.026Z,99.90
2022-08-29T02:39:31.211Z,99.90
2022-08-29T02:41:58.262Z,99.90
2022-08-29T02:44:25.580Z,99.90
2022-08-29T02:46:52.722Z,99.90
2022-08-29T02:49:19.805Z,99.90
2022-08-29T02:51:48.615Z,99.90
2022-08-29T02:54:15.999Z,99.90
2022-08-29T02:56:43.018Z,99.90
2022-08-29T02:59:10.050Z,99.90
2022-08-29T03:01:39.079Z,99.90
2022-08-29T03:04:06.472Z,99.90
2022-08-29T03:06:34.026Z,99.90
2022-08-29T03:09:01.643Z,99.90
2022-08-29T03:11:29.781Z,99.90
2022-08-29T03:13:57.654Z,99.90
2022-08-29T03:16:26.347Z,99.90
2022-08-29T03:18:54.514Z,99.90
2022-08-29T03:21:25.419Z,99.90
2022-08-29T03:23:55.404Z,99.90
2022-08-29T03:26:23.700Z,99.90
2022-08-29T03:28:51.491Z,99.90
2022-08-29T03:31:19.214Z,99.90
2022-08-29T03:33:46.283Z,99.90
2022-08-29T03:36:14.960Z,99.90
2022-08-29T03:38:46.731Z,99.90
2022-08-29T03:41:22.386Z,99.90
2022-08-29T03:43:49.588Z,99.90
2022-08-29T03:46:16.708Z,99.90
2022-08-29T03:48:43.834Z,99.90
2022-08-29T03:51:10.873Z,99.90
2022-08-29T03:53:38.076Z,99.90
2022-08-29T03:56:06.256Z,99.90
2022-08-29T03:58:34.225Z,99.90
2022-08-29T04:01:01.975Z,99.90
2022-08-29T04:03:31.062Z,99.90
2022-08-29T04:05:59.244Z,99.90
2022-08-29T04:08:26.445Z,99.90
2022-08-29T04:10:53.694Z,99.90
2022-08-29T04:13:20.867Z,99.90
2022-08-29T04:15:47.937Z,99.90
2022-08-29T04:18:15.628Z,99.90
2022-08-29T04:20:48.441Z,99.90
2022-08-29T04:23:15.560Z,99.90
2022-08-29T04:25:44.345Z,99.90
2022-08-29T04:28:14.720Z,99.90
2022-08-29T04:30:51.908Z,99.90
2022-08-29T04:33:23.053Z,99.90
2022-08-29T04:35:51.519Z,99.90
2022-08-29T04:38:19.884Z,99.90
2022-08-29T04:40:48.088Z,99.90
2022-08-29T04:43:15.083Z,99.90
2022-08-29T04:45:42.296Z,99.90
2022-08-29T04:48:10.907Z,99.90
2022-08-29T04:50:39.177Z,99.90
2022-08-29T04:53:07.358Z,99.90
2022-08-29T04:55:34.510Z,99.90
2022-08-29T04:58:01.641Z,99.90
2022-08-29T05:00:31.563Z,99.90
2022-08-29T05:02:59.003Z,99.90
2022-08-29T05:05:27.013Z,99.90
2022-08-29T05:07:54.210Z,99.90
2022-08-29T05:10:22.660Z,99.90
2022-08-29T05:12:49.976Z,99.90
2022-08-29T05:15:17.912Z,99.90
2022-08-29T05:17:45.266Z,99.90
2022-08-29T05:20:13.250Z,99.90
2022-08-29T05:22:42.229Z,99.90
2022-08-29T05:25:17.326Z,99.90
2022-08-29T05:27:45.611Z,99.90
2022-08-29T05:30:12.939Z,99.90
2022-08-29T05:32:39.952Z,99.90
2022-08-29T05:35:07.518Z,99.90
2022-08-29T05:37:34.802Z,99.90
2022-08-29T05:40:02.183Z,99.90
2022-08-29T05:42:29.605Z,99.90
2022-08-29T05:44:56.927Z,99.90
2022-08-29T05:47:24.221Z,99.90
2022-08-29T05:49:51.622Z,99.90
2022-08-29T05:52:22.375Z,99.90
2022-08-29T05:54:50.219Z,99.90
2022-08-29T05:57:21.808Z,99.90
2022-08-29T05:59:50.499Z,99.90
2022-08-29T06:02:19.037Z,99.90
2022-08-29T06:04:46.591Z,99.90
2022-08-29T06:07:13.853Z,99.90
2022-08-29T06:09:42.229Z,99.90
2022-08-29T06:12:10.412Z,99.90
2022-08-29T06:14:37.844Z,99.90
2022-08-29T06:17:06.143Z,99.90
2022-08-29T06:19:35.994Z,99.90
2022-08-29T06:22:06.081Z,99.90
2022-08-29T06:24:38.447Z,99.90
2022-08-29T06:27:06.091Z,99.90
2022-08-29T06:29:43.311Z,99.90
2022-08-29T06:32:11.869Z,99.90
2022-08-29T06:34:39.138Z,99.90
2022-08-29T06:37:06.197Z,99.90
2022-08-29T06:39:33.220Z,99.90
2022-08-29T06:42:00.432Z,99.90
2022-08-29T06:44:30.720Z,99.90
2022-08-29T06:46:58.806Z,99.90
2022-08-29T06:49:27.769Z,99.90
2022-08-29T06:51:58.037Z,99.90
2022-08-29T06:54:28.053Z,99.90
2022-08-29T06:57:20.841Z,99.90
2022-08-29T06:59:48.181Z,99.90
2022-08-29T07:02:15.383Z,99.90
2022-08-29T07:04:42.436Z,99.90
2022-08-29T07:07:09.697Z,99.90
2022-08-29T07:09:36.786Z,99.90
2022-08-29T07:12:04.195Z,99.90
2022-08-29T07:14:31.274Z,99.90
2022-08-29T07:16:58.299Z,99.90
2022-08-29T07:19:25.503Z,99.90
2022-08-29T07:21:57.983Z,99.90
2022-08-29T07:24:25.754Z,99.90
2022-08-29T07:26:52.798Z,99.90
2022-08-29T07:29:22.044Z,99.90
2022-08-29T07:31:49.285Z,99.90
2022-08-29T07:34:20.734Z,99.90
2022-08-29T07:36:48.781Z,99.90
2022-08-29T07:39:18.643Z,99.90
2022-08-29T07:41:46.704Z,99.90
2022-08-29T07:44:14.498Z,99.50
2022-08-29T07:46:42.349Z,99.60
2022-08-29T07:49:09.823Z,97.40
2022-08-29T07:51:36.959Z,95.90
2022-08-29T07:54:05.283Z,94.20
2022-08-29T07:56:40.826Z,93.40
2022-08-29T07:59:08.330Z,91.10
2022-08-29T08:01:36.120Z,90.30
2022-08-29T08:04:03.810Z,88.10
2022-08-29T08:06:31.459Z,85.40
2022-08-29T08:09:01.783Z,83.70
2022-08-29T08:11:28.919Z,81.80
2022-08-29T08:13:56.488Z,79.50
2022-08-29T08:16:25.883Z,77.80
2022-08-29T08:18:54.079Z,76.60
2022-08-29T08:21:22.774Z,76.40
2022-08-29T08:23:49.932Z,74.60
2022-08-29T08:26:17.536Z,72.70
2022-08-29T08:28:46.120Z,72.90
2022-08-29T08:31:15.379Z,70.50
2022-08-29T08:33:44.501Z,70.30
2022-08-29T08:36:18.460Z,70.60
2022-08-29T08:38:46.437Z,69.10
2022-08-29T08:41:34.167Z,68.60
2022-08-29T08:44:07.410Z,65.50
2022-08-29T08:46:43.196Z,64.40
2022-08-29T08:49:24.455Z,63.60
2022-08-29T08:51:58.623Z,63.00
2022-08-29T08:54:29.675Z,60.30
2022-08-29T08:57:08.271Z,61.40
2022-08-29T08:59:45.617Z,61.70
2022-08-29T09:02:15.882Z,61.30
2022-08-29T09:04:58.592Z,58.40
2022-08-29T09:07:31.257Z,59.30
2022-08-29T09:10:20.291Z,58.80
2022-08-29T09:13:12.540Z,59.40
2022-08-29T09:15:44.048Z,59.50
2022-08-29T09:18:32.308Z,56.90
2022-08-29T09:21:10.039Z,56.70
2022-08-29T09:23:57.763Z,56.30
2022-08-29T09:26:27.237Z,55.80
2022-08-29T09:28:55.179Z,55.00
2022-08-29T09:31:28.991Z,55.90
2022-08-29T09:34:03.215Z,55.20
2022-08-29T09:36:45.920Z,53.90
2022-08-29T09:39:25.511Z,53.60
2022-08-29T09:41:57.774Z,54.70
2022-08-29T09:44:29.039Z,54.70
2022-08-29T09:47:19.338Z,54.20
2022-08-29T09:50:06.585Z,53.10
2022-08-29T09:52:41.114Z,50.90
2022-08-29T09:55:39.208Z,49.70
2022-08-29T09:58:18.588Z,50.90
2022-08-29T10:01:06.382Z,50.00
2022-08-29T10:03:42.179Z,51.00
2022-08-29T10:06:16.700Z,51.40
2022-08-29T10:08:58.188Z,49.90
2022-08-29T10:11:37.003Z,50.70
2022-08-29T10:14:12.586Z,48.90
2022-08-29T10:17:18.440Z,49.60
2022-08-29T10:19:45.779Z,49.00
2022-08-29T10:22:41.844Z,48.40
2022-08-29T10:25:27.139Z,49.40
2022-08-29T10:28:15.179Z,47.50
2022-08-29T10:30:51.434Z,48.70
2022-08-29T10:33:40.387Z,45.80
2022-08-29T10:36:29.776Z,46.90
2022-08-29T10:39:19.217Z,48.00
2022-08-29T10:42:07.261Z,48.00
2022-08-29T10:44:34.490Z,47.00
2022-08-29T10:47:28.283Z,46.20
2022-08-29T10:50:45.705Z,46.50
2022-08-29T10:53:20.502Z,46.30
2022-08-29T10:55:56.869Z,44.40
2022-08-29T10:58:45.642Z,45.40
2022-08-29T11:01:27.517Z,45.40
2022-08-29T11:04:17.323Z,44.70
2022-08-29T11:06:55.953Z,44.10
2022-08-29T11:09:29.195Z,46.10
2022-08-29T11:12:23.898Z,45.90
2022-08-29T11:15:28.393Z,46.10
2022-08-29T11:18:23.824Z,45.70
2022-08-29T11:21:02.079Z,45.80
2022-08-29T11:23:44.612Z,46.10
2022-08-29T11:26:37.435Z,45.40
2022-08-29T11:29:32.008Z,43.70
2022-08-29T11:32:15.477Z,44.10
2022-08-29T11:35:12.367Z,43.30
2022-08-29T11:38:10.352Z,42.50
2022-08-29T11:40:47.962Z,43.30
2022-08-29T11:43:20.810Z,42.50
2022-08-29T11:46:00.278Z,42.10
2022-08-29T11:48:34.078Z,42.30
2022-08-29T11:51:36.132Z,42.70
2022-08-29T11:54:26.976Z,41.70
2022-08-29T11:57:05.867Z,41.80
2022-08-29T11:59:49.127Z,42.30
2022-08-29T12:02:28.514Z,42.10
2022-08-29T12:05:27.612Z,41.00
2022-08-29T12:08:33.589Z,41.50
2022-08-29T12:11:00.989Z,42.10
2022-08-29T12:13:46.827Z,41.40
2022-08-29T12:16:48.980Z,41.50
2022-08-29T12:20:02.743Z,42.60
2022-08-29T12:22:48.819Z,40.40
2022-08-29T12:25:27.841Z,41.70
2022-08-29T12:28:31.164Z,42.20
2022-08-29T12:31:01.121Z,42.30
2022-08-29T12:33:55.343Z,41.20
2022-08-29T12:37:02.918Z,42.20
2022-08-29T12:39:39.067Z,42.40
2022-08-29T12:42:28.036Z,43.30
2022-08-29T12:45:05.982Z,42.80
2022-08-29T12:47:45.299Z,42.40
2022-08-29T12:50:21.963Z,43.30
2022-08-29T12:53:07.847Z,42.70
2022-08-29T12:55:45.953Z,42.20
2022-08-29T12:58:15.111Z,44.30
2022-08-29T13:00:42.451Z,44.10
2022-08-29T13:03:18.582Z,43.00
2022-08-29T13:05:47.152Z,43.90
2022-08-29T13:08:29.890Z,44.70
2022-08-29T13:11:18.941Z,45.90
2022-08-29T13:13:46.026Z,48.10
2022-08-29T13:16:26.569Z,48.40
2022-08-29T13:19:10.054Z,47.20
2022-08-29T13:21:38.158Z,45.40
2022-08-29T13:24:16.728Z,46.30
2022-08-29T13:27:04.951Z,46.10
2022-08-29T13:29:41.391Z,45.20
2022-08-29T13:32:19.601Z,45.80
2022-08-29T13:35:03.552Z,49.30
2022-08-29T13:37:36.770Z,49.10
2022-08-29T13:40:41.624Z,48.50
2022-08-29T13:43:38.075Z,49.80
2022-08-29T13:46:26.718Z,51.20
2022-08-29T13:49:01.889Z,55.90
2022-08-29T13:51:29.014Z,57.00
2022-08-29T13:53:56.290Z,56.50
2022-08-29T13:56:33.711Z,55.90
2022-08-29T13:59:00.836Z,56.10
2022-08-29T14:02:07.488Z,58.80
2022-08-29T14:07:04.179Z,56.80
2022-08-29T14:09:40.077Z,57.70
2022-08-29T14:12:07.610Z,57.40
2022-08-29T14:14:34.795Z,54.80
2022-08-29T14:17:02.337Z,55.00
2022-08-29T14:19:31.122Z,56.40
2022-08-29T14:22:00.554Z,57.30
2022-08-29T14:24:30.943Z,59.00
2022-08-29T14:27:01.634Z,61.30
2022-08-29T14:29:34.224Z,60.80
2022-08-29T14:32:03.388Z,61.10
2022-08-29T14:34:32.621Z,62.40
2022-08-29T14:37:03.509Z,61.70
2022-08-29T14:39:30.622Z,63.10
2022-08-29T14:41:57.673Z,63.10
2022-08-29T14:44:24.833Z,63.90
2022-08-29T14:46:52.213Z,66.90
2022-08-29T14:49:19.795Z,64.40
2022-08-29T14:51:47.294Z,63.40
2022-08-29T14:54:14.961Z,62.60
2022-08-29T14:56:50.646Z,62.20
2022-08-29T14:59:19.324Z,64.50
2022-08-29T15:01:51.227Z,62.80
2022-08-29T15:04:35.441Z,62.10
2022-08-29T15:07:10.090Z,59.90
2022-08-29T15:09:38.454Z,61.80
2022-08-29T15:12:06.247Z,60.00
2022-08-29T15:14:34.733Z,59.90
2022-08-29T15:17:02.717Z,56.60
2022-08-29T15:20:31.657Z,56.30
2022-08-29T15:22:18.189Z,56.60
2022-08-29T15:24:45.398Z,54.90
2022-08-29T15:27:14.150Z,55.10
2022-08-29T15:29:41.419Z,54.90
2022-08-29T15:32:09.632Z,53.40
2022-08-29T15:34:37.187Z,55.30
2022-08-29T15:37:05.167Z,56.10
2022-08-29T15:39:32.403Z,57.00
2022-08-29T15:42:01.955Z,56.90
2022-08-29T15:44:29.560Z,58.20
2022-08-29T15:46:57.495Z,57.50
2022-08-29T15:49:26.371Z,58.00
2022-08-29T15:51:54.461Z,58.00
2022-08-29T15:54:22.965Z,58.30
2022-08-29T15:56:50.091Z,57.30
2022-08-29T15:59:24.885Z,57.80
2022-08-29T16:02:04.071Z,59.10
2022-08-29T16:04:31.779Z,59.80
2022-08-29T16:06:59.237Z,61.50
2022-08-29T16:09:26.257Z,64.50
2022-08-29T16:11:53.456Z,66.10
2022-08-29T16:17:09.615Z,70.10
2022-08-29T16:19:41.888Z,72.20
2022-08-29T16:22:09.370Z,73.60
2022-08-29T16:24:36.537Z,74.60
2022-08-29T16:27:04.432Z,76.10
2022-08-29T16:29:32.201Z,75.90
2022-08-29T16:31:59.521Z,77.10
2022-08-29T16:34:27.756Z,77.10
2022-08-29T16:36:59.458Z,77.70
2022-08-29T16:39:27.742Z,78.60
2022-08-29T16:41:55.215Z,78.40
2022-08-29T16:44:22.593Z,78.40
2022-08-29T16:46:49.776Z,79.20
2022-08-29T16:49:16.875Z,79.00
2022-08-29T16:51:44.029Z,79.80
2022-08-29T16:54:12.653Z,80.00
2022-08-29T16:56:39.896Z,79.40
2022-08-29T16:59:08.022Z,79.80
2022-08-29T17:01:50.156Z,79.50
2022-08-29T17:04:23.739Z,79.80
2022-08-29T17:06:51.985Z,80.60
2022-08-29T17:09:21.745Z,80.90
2022-08-29T17:11:50.549Z,81.40
2022-08-29T17:14:18.582Z,81.80
2022-08-29T17:16:48.474Z,82.30
2022-08-29T17:19:16.422Z,83.30
2022-08-29T17:21:44.194Z,83.10
2022-08-29T17:24:11.986Z,83.90
2022-08-29T17:26:42.334Z,84.80
2022-08-29T17:29:10.661Z,84.10
2022-08-29T17:31:38.551Z,85.60
2022-08-29T17:34:08.531Z,86.20
2022-08-29T17:36:36.904Z,86.80
2022-08-29T17:39:06.263Z,87.60
2022-08-29T17:41:34.855Z,87.80
2022-08-29T17:44:02.310Z,89.10
2022-08-29T17:46:29.833Z,89.90
2022-08-29T17:48:57.197Z,90.20
2022-08-29T17:51:24.359Z,90.60
2022-08-29T17:53:52.048Z,90.50
2022-08-29T17:56:29.620Z,90.90
2022-08-29T17:58:57.629Z,91.30
2022-08-29T18:01:24.744Z,91.70
2022-08-29T18:03:52.049Z,92.10
2022-08-29T18:06:19.452Z,92.40
2022-08-29T18:08:47.871Z,92.70
2022-08-29T18:11:16.645Z,92.60
2022-08-29T18:13:44.315Z,92.80
2022-08-29T18:16:12.051Z,92.90
2022-08-29T18:18:40.162Z,92.90
2022-08-29T18:21:07.312Z,93.20
2022-08-29T18:23:34.960Z,93.10
2022-08-29T18:26:03.397Z,92.80
2022-08-29T18:28:30.870Z,93.00
2022-08-29T18:30:58.839Z,93.30
2022-08-29T18:33:38.774Z,93.40
2022-08-29T18:36:12.799Z,93.50
2022-08-29T18:38:39.928Z,93.40
2022-08-29T18:41:07.193Z,93.90
2022-08-29T18:43:35.224Z,93.90
2022-08-29T18:46:04.039Z,94.50
2022-08-29T18:48:31.697Z,94.40
2022-08-29T18:51:00.280Z,94.70
2022-08-29T18:53:29.315Z,94.80
2022-08-29T18:55:56.935Z,95.10
2022-08-29T18:58:28.740Z,95.30
2022-08-29T19:00:56.651Z,95.30
2022-08-29T19:03:23.788Z,95.60
2022-08-29T19:05:52.462Z,96.00
2022-08-29T19:08:24.659Z,95.90
2022-08-29T19:10:53.941Z,96.40
2022-08-29T19:13:25.245Z,96.30
2022-08-29T19:15:56.626Z,96.40
2022-08-29T19:18:23.941Z,96.70
2022-08-29T19:21:02.915Z,97.00
2022-08-29T19:23:37.281Z,97.10
2022-08-29T19:26:07.173Z,97.50
2022-08-29T19:28:34.713Z,97.90
2022-08-29T19:31:02.806Z,98.20
2022-08-29T19:33:29.923Z,98.80
2022-08-29T19:35:57.593Z,99.30
2022-08-29T19:38:24.658Z,99.70
2022-08-29T19:40:56.390Z,99.90
2022-08-29T19:43:27.498Z,99.90
2022-08-29T19:45:55.711Z,99.90
2022-08-29T19:48:23.497Z,99.90
2022-08-29T19:50:54.579Z,99.90
2022-08-29T19:53:26.108Z,99.90
2022-08-29T19:55:57.017Z,99.90
2022-08-29T19:58:31.359Z,99.90
2022-08-29T20:01:04.592Z,99.90
2022-08-29T20:03:36.850Z,99.90
2022-08-29T20:06:06.948Z,99.90
2022-08-29T20:08:36.471Z,99.90
2022-08-29T20:11:04.467Z,99.90
2022-08-29T20:13:35.741Z,99.90
2022-08-29T20:16:08.593Z,99.90
2022-08-29T20:18:35.651Z,99.90
2022-08-29T20:21:02.635Z,99.90
2022-08-29T20:23:31.682Z,99.90
2022-08-29T20:26:01.580Z,99.90
2022-08-29T20:28:30.512Z,99.90
2022-08-29T20:30:58.243Z,99.90
2022-08-29T20:33:26.135Z,99.90
2022-08-29T20:36:12.258Z,99.90
2022-08-29T20:38:39.501Z,99.90
2022-08-29T20:41:06.547Z,99.90
2022-08-29T20:43:33.986Z,99.90
2022-08-29T20:46:07.490Z,99.90
2022-08-29T20:48:34.566Z,99.90
2022-08-29T20:51:04.607Z,99.90
2022-08-29T20:53:33.059Z,99.90
2022-08-29T20:56:01.248Z,99.90
2022-08-29T20:58:30.395Z,99.90
2022-08-29T21:00:59.660Z,99.90
2022-08-29T21:03:45.612Z,99.90
2022-08-29T21:06:13.142Z,99.90
2022-08-29T21:08:41.642Z,99.90
2022-08-29T21:11:09.145Z,99.90
2022-08-29T21:13:43.626Z,99.90
2022-08-29T21:16:11.485Z,99.90
2022-08-29T21:18:39.296Z,99.90
2022-08-29T21:21:06.646Z,99.90
2022-08-29T21:23:34.382Z,99.90
2022-08-29T21:26:02.168Z,99.90
2022-08-29T21:28:32.890Z,99.90
2022-08-29T21:31:05.289Z,99.90
2022-08-29T21:33:33.750Z,99.90
2022-08-29T21:36:01.296Z,99.90
2022-08-29T21:38:32.638Z,99.90
2022-08-29T21:40:59.641Z,99.90
2022-08-29T21:43:26.970Z,99.90
2022-08-29T21:45:54.088Z,99.90
2022-08-29T21:48:21.146Z,99.90
2022-08-29T21:50:54.897Z,99.90
2022-08-29T21:53:22.992Z,99.90
2022-08-29T21:55:50.057Z,99.90
2022-08-29T21:58:18.095Z,99.90
2022-08-29T22:00:45.216Z,99.90
2022-08-29T22:03:13.155Z,99.90
2022-08-29T22:05:43.891Z,99.90
2022-08-29T22:08:13.859Z,99.90
2022-08-29T22:10:42.516Z,99.90
2022-08-29T22:13:09.849Z,99.90
2022-08-29T22:15:55.972Z,99.90
2022-08-29T22:18:23.518Z,99.90
2022-08-29T22:20:52.955Z,99.90
2022-08-29T22:23:24.521Z,99.90
2022-08-29T22:25:52.527Z,99.90
2022-08-29T22:28:19.959Z,99.90
2022-08-29T22:30:46.976Z,99.90
2022-08-29T22:33:16.487Z,99.90
2022-08-29T22:35:44.121Z,99.90
2022-08-29T22:38:11.353Z,99.90
2022-08-29T22:40:39.033Z,99.90
2022-08-29T22:43:06.707Z,99.90
2022-08-29T22:45:33.820Z,99.90
2022-08-29T22:48:00.856Z,99.90
2022-08-29T22:50:28.364Z,99.90
2022-08-29T22:52:58.388Z,99.90
2022-08-29T22:57:52.550Z,99.90
2022-08-29T23:00:23.788Z,99.90
2022-08-29T23:02:52.611Z,99.90
2022-08-29T23:05:21.780Z,99.90
2022-08-29T23:07:48.794Z,99.90
2022-08-29T23:10:17.535Z,99.90
2022-08-29T23:12:44.576Z,99.90
2022-08-29T23:15:17.757Z,99.90
2022-08-29T23:17:45.153Z,99.90
2022-08-29T23:20:14.740Z,99.90
2022-08-29T23:22:42.934Z,99.90
2022-08-29T23:25:12.197Z,99.90
2022-08-29T23:27:39.630Z,99.90
2022-08-29T23:30:10.259Z,99.90
2022-08-29T23:32:37.379Z,99.90
2022-08-29T23:35:05.721Z,99.90
2022-08-29T23:37:32.709Z,99.90
2022-08-29T23:40:01.126Z,99.90
2022-08-29T23:42:29.278Z,99.90
2022-08-29T23:44:57.517Z,99.90
2022-08-29T23:47:24.517Z,99.90
2022-08-29T23:49:51.598Z,99.90
2022-08-29T23:52:18.898Z,99.90
2022-08-29T23:54:45.975Z,99.90
2022-08-29T23:57:13.029Z,99.90
2022-08-29T23:59:58.608Z,99.90
